createdAt,value
2023-03-04T00:02:06.752Z,3.67
2023-03-04T00:04:33.095Z,3.15
2023-03-04T00:06:59.443Z,3.78
2023-03-04T00:09:25.834Z,3.58
2023-03-04T00:11:52.160Z,4.05
2023-03-04T00:14:18.629Z,3.83
2023-03-04T00:16:45.083Z,3.22
2023-03-04T00:19:11.544Z,3.20
2023-03-04T00:21:37.895Z,3.47
2023-03-04T00:24:04.312Z,3.60
2023-03-04T00:26:30.774Z,4.28
2023-03-04T00:28:57.109Z,3.25
2023-03-04T00:31:23.607Z,3.30
2023-03-04T00:33:50.131Z,3.75
2023-03-04T00:36:16.466Z,2.83
2023-03-04T00:38:42.774Z,3.53
2023-03-04T00:41:09.143Z,3.30
2023-03-04T00:43:35.496Z,3.53
2023-03-04T00:46:02.117Z,3.63
2023-03-04T00:48:28.498Z,3.95
2023-03-04T00:50:54.811Z,3.08
2023-03-04T00:53:23.855Z,3.53
2023-03-04T00:55:50.278Z,3.50
2023-03-04T00:58:16.762Z,3.05
2023-03-04T01:00:43.180Z,3.95
2023-03-04T01:03:09.531Z,3.90
2023-03-04T01:05:36.078Z,3.17
2023-03-04T01:08:03.714Z,4.10
2023-03-04T01:10:30.133Z,3.22
2023-03-04T01:12:56.841Z,3.10
2023-03-04T01:15:23.458Z,3.17
2023-03-04T01:17:50.023Z,3.97
2023-03-04T01:20:16.975Z,3.28
2023-03-04T01:22:43.351Z,3.63
2023-03-04T01:25:10.322Z,3.53
2023-03-04T01:27:36.740Z,3.30
2023-03-04T01:30:04.742Z,3.42
2023-03-04T01:32:31.159Z,3.33
2023-03-04T01:34:57.642Z,3.85
2023-03-04T01:37:24.050Z,2.92
2023-03-04T01:39:50.460Z,3.72
2023-03-04T01:42:22.387Z,3.13
2023-03-04T01:44:51.004Z,3.90
2023-03-04T01:47:18.861Z,2.70
2023-03-04T01:49:50.746Z,3.83
2023-03-04T01:52:17.065Z,3.72
2023-03-04T01:54:43.513Z,2.97
2023-03-04T01:57:21.635Z,3.25
2023-03-04T02:00:08.237Z,2.92
2023-03-04T02:02:34.571Z,3.10
2023-03-04T02:05:00.948Z,3.45
2023-03-04T02:07:27.292Z,3.08
2023-03-04T02:09:53.637Z,2.72
2023-03-04T02:12:20.029Z,3.50
2023-03-04T02:14:46.382Z,3.10
2023-03-04T02:17:13.408Z,2.83
2023-03-04T02:19:50.820Z,2.90
2023-03-04T02:22:17.265Z,2.95
2023-03-04T02:24:49.555Z,3.30
2023-03-04T02:27:16.156Z,3.20
2023-03-04T02:29:42.576Z,3.33
2023-03-04T02:32:12.992Z,3.65
2023-03-04T02:34:46.875Z,3.05
2023-03-04T02:37:13.990Z,2.70
2023-03-04T02:39:43.180Z,2.92
2023-03-04T02:42:10.171Z,2.85
2023-03-04T02:44:39.173Z,2.67
2023-03-04T02:47:08.427Z,3.00
2023-03-04T02:49:36.967Z,2.40
2023-03-04T02:52:22.198Z,2.70
2023-03-04T02:54:48.723Z,2.50
2023-03-04T02:57:15.736Z,2.88
2023-03-04T02:59:42.688Z,2.83
2023-03-04T03:02:09.646Z,2.67
2023-03-04T03:04:38.209Z,2.67
2023-03-04T03:07:05.055Z,3.08
2023-03-04T03:09:31.674Z,2.80
2023-03-04T03:11:58.050Z,2.65
2023-03-04T03:14:24.369Z,2.70
2023-03-04T03:16:50.704Z,2.67
2023-03-04T03:19:17.022Z,3.13
2023-03-04T03:21:43.395Z,2.58
2023-03-04T03:24:09.871Z,2.72
2023-03-04T03:26:36.250Z,2.35
2023-03-04T03:29:02.661Z,3.22
2023-03-04T03:31:29.229Z,2.92
2023-03-04T03:33:55.577Z,2.25
2023-03-04T03:36:22.080Z,2.70
2023-03-04T03:38:48.397Z,2.90
2023-03-04T03:41:14.728Z,2.90
2023-03-04T03:43:41.053Z,2.55
2023-03-04T03:46:07.412Z,2.80
2023-03-04T03:48:33.818Z,2.88
2023-03-04T03:51:00.162Z,2.08
2023-03-04T03:53:26.481Z,2.35
2023-03-04T03:55:52.846Z,2.10
2023-03-04T03:58:19.233Z,2.33
2023-03-04T04:00:45.575Z,2.47
2023-03-04T04:03:15.592Z,2.65
2023-03-04T04:05:41.947Z,2.38
2023-03-04T04:08:12.967Z,2.05
2023-03-04T04:10:39.422Z,2.55
2023-03-04T04:13:05.744Z,2.80
2023-03-04T04:15:32.151Z,3.05
2023-03-04T04:17:58.525Z,2.85
2023-03-04T04:20:26.249Z,2.83
2023-03-04T04:22:52.807Z,3.55
2023-03-04T04:25:19.175Z,3.22
2023-03-04T04:27:45.517Z,2.92
2023-03-04T04:30:12.391Z,2.95
2023-03-04T04:32:38.720Z,2.83
2023-03-04T04:35:05.584Z,3.10
2023-03-04T04:37:32.046Z,3.05
2023-03-04T04:39:58.420Z,2.70
2023-03-04T04:42:25.000Z,2.58
2023-03-04T04:44:52.536Z,3.15
2023-03-04T04:47:18.853Z,3.10
2023-03-04T04:49:45.192Z,2.67
2023-03-04T04:52:11.807Z,3.22
2023-03-04T04:54:38.138Z,2.92
2023-03-04T04:57:04.766Z,2.97
2023-03-04T04:59:31.078Z,2.42
2023-03-04T05:01:57.552Z,2.40
2023-03-04T05:04:24.025Z,3.13
2023-03-04T05:06:50.374Z,2.50
2023-03-04T05:09:16.760Z,2.22
2023-03-04T05:11:43.092Z,2.38
2023-03-04T05:14:09.429Z,2.63
2023-03-04T05:16:35.869Z,2.65
2023-03-04T05:19:02.200Z,2.13
2023-03-04T05:21:28.589Z,2.75
2023-03-04T05:23:55.245Z,2.10
2023-03-04T05:26:21.591Z,2.53
2023-03-04T05:28:48.059Z,2.20
2023-03-04T05:31:14.855Z,2.38
2023-03-04T05:33:41.280Z,2.30
2023-03-04T05:36:08.065Z,2.80
2023-03-04T05:38:34.914Z,2.30
2023-03-04T05:41:05.366Z,2.30
2023-03-04T05:43:34.173Z,2.17
2023-03-04T05:46:00.515Z,2.22
2023-03-04T05:48:28.880Z,2.10
2023-03-04T05:51:00.787Z,2.40
2023-03-04T05:53:28.078Z,2.22
2023-03-04T05:55:54.555Z,2.15
2023-03-04T05:58:21.822Z,2.03
2023-03-04T06:00:48.454Z,2.08
2023-03-04T06:03:22.466Z,2.17
2023-03-04T06:05:49.017Z,1.75
2023-03-04T06:08:15.425Z,1.90
2023-03-04T06:10:42.105Z,2.20
2023-03-04T06:13:09.247Z,1.95
2023-03-04T06:15:35.765Z,1.83
2023-03-04T06:18:02.279Z,1.90
2023-03-04T06:20:28.791Z,2.20
2023-03-04T06:22:55.480Z,1.95
2023-03-04T06:25:22.111Z,2.08
2023-03-04T06:27:50.622Z,1.90
2023-03-04T06:30:18.049Z,2.20
2023-03-04T06:32:44.478Z,2.50
2023-03-04T06:35:12.025Z,2.20
2023-03-04T06:37:38.522Z,2.20
2023-03-04T06:40:05.781Z,1.67
2023-03-04T06:42:32.137Z,2.35
2023-03-04T06:44:58.475Z,2.13
2023-03-04T06:47:24.913Z,1.98
2023-03-04T06:49:51.354Z,2.03
2023-03-04T06:52:17.848Z,2.00
2023-03-04T06:54:44.327Z,1.92
2023-03-04T06:57:10.636Z,2.45
2023-03-04T06:59:37.027Z,2.17
2023-03-04T07:02:03.450Z,2.20
2023-03-04T07:04:29.795Z,2.13
2023-03-04T07:06:56.197Z,1.95
2023-03-04T07:09:22.544Z,1.77
2023-03-04T07:11:48.926Z,2.10
2023-03-04T07:14:15.607Z,2.00
2023-03-04T07:16:42.007Z,1.83
2023-03-04T07:19:08.423Z,2.40
2023-03-04T07:21:34.865Z,2.30
2023-03-04T07:24:02.502Z,2.03
2023-03-04T07:26:28.815Z,2.42
2023-03-04T07:28:57.139Z,2.47
2023-03-04T07:31:32.443Z,2.60
2023-03-04T07:34:04.348Z,2.40
2023-03-04T07:36:30.714Z,2.38
2023-03-04T07:38:57.194Z,2.25
2023-03-04T07:41:27.656Z,2.17
2023-03-04T07:44:00.756Z,2.10
2023-03-04T07:46:27.410Z,2.03
2023-03-04T07:48:55.852Z,2.50
2023-03-04T07:51:24.312Z,2.17
2023-03-04T07:53:58.018Z,1.80
2023-03-04T07:56:27.812Z,2.15
2023-03-04T07:58:56.584Z,1.83
2023-03-04T08:01:31.113Z,2.78
2023-03-04T08:03:58.145Z,1.83
2023-03-04T08:06:26.706Z,2.17
2023-03-04T08:09:01.791Z,2.30
2023-03-04T08:11:29.940Z,1.80
2023-03-04T08:13:56.479Z,1.70
2023-03-04T08:16:24.297Z,2.13
2023-03-04T08:18:56.125Z,2.22
2023-03-04T08:21:24.711Z,2.13
2023-03-04T08:23:51.580Z,1.75
2023-03-04T08:26:23.313Z,2.00
2023-03-04T08:28:50.186Z,1.90
2023-03-04T08:31:18.137Z,1.80
2023-03-04T08:33:45.254Z,2.25
2023-03-04T08:36:12.820Z,2.10
2023-03-04T08:38:39.482Z,1.98
2023-03-04T08:41:06.341Z,1.88
2023-03-04T08:43:34.608Z,1.60
2023-03-04T08:46:01.264Z,2.53
2023-03-04T08:48:27.856Z,2.13
2023-03-04T08:50:54.626Z,2.22
2023-03-04T08:53:21.649Z,1.98
2023-03-04T08:55:50.334Z,2.15
2023-03-04T08:58:16.962Z,2.10
2023-03-04T09:00:48.273Z,2.63
2023-03-04T09:03:17.059Z,2.70
2023-03-04T09:05:45.705Z,2.42
2023-03-04T09:08:12.912Z,2.20
2023-03-04T09:10:39.704Z,2.60
2023-03-04T09:13:06.437Z,2.20
2023-03-04T09:15:35.984Z,2.25
2023-03-04T09:18:03.718Z,2.15
2023-03-04T09:20:31.389Z,1.98
2023-03-04T09:22:57.883Z,2.47
2023-03-04T09:25:24.476Z,1.70
2023-03-04T09:27:50.966Z,2.03
2023-03-04T09:30:17.599Z,1.70
2023-03-04T09:32:43.946Z,1.90
2023-03-04T09:35:10.691Z,1.92
2023-03-04T09:37:38.689Z,2.05
2023-03-04T09:40:08.191Z,1.90
2023-03-04T09:42:47.295Z,2.50
2023-03-04T09:45:18.651Z,2.00
2023-03-04T09:47:46.762Z,2.70
2023-03-04T09:50:13.408Z,1.90
2023-03-04T09:53:02.900Z,2.67
2023-03-04T09:55:37.366Z,2.22
2023-03-04T09:58:22.028Z,2.40
2023-03-04T10:00:56.874Z,2.30
2023-03-04T10:03:43.242Z,2.67
2023-03-04T10:06:17.799Z,1.85
2023-03-04T10:09:04.136Z,2.70
2023-03-04T10:14:21.437Z,2.45
2023-03-04T10:16:56.530Z,2.50
2023-03-04T10:19:36.852Z,3.28
2023-03-04T10:22:17.019Z,3.00
2023-03-04T10:24:46.972Z,2.92
2023-03-04T10:27:17.190Z,2.28
2023-03-04T10:29:43.745Z,2.70
2023-03-04T10:32:20.775Z,2.53
2023-03-04T10:34:47.268Z,3.17
2023-03-04T10:37:13.689Z,3.17
2023-03-04T10:39:46.274Z,2.60
2023-03-04T10:42:15.668Z,2.42
2023-03-04T10:44:59.615Z,2.60
2023-03-04T10:47:32.648Z,2.65
2023-03-04T10:50:01.518Z,2.85
2023-03-04T10:52:35.136Z,3.30
2023-03-04T10:55:14.344Z,2.30
2023-03-04T10:57:43.602Z,3.47
2023-03-04T11:00:33.458Z,2.28
2023-03-04T11:03:27.861Z,2.47
2023-03-04T11:06:17.523Z,2.33
2023-03-04T11:08:44.903Z,2.53
2023-03-04T11:11:37.065Z,2.50
2023-03-04T11:14:17.171Z,2.40
2023-03-04T11:16:53.183Z,2.67
2023-03-04T11:19:22.687Z,2.78
2023-03-04T11:21:50.892Z,2.55
2023-03-04T11:24:29.379Z,2.47
2023-03-04T11:27:02.641Z,2.50
2023-03-04T11:29:51.552Z,2.28
2023-03-04T11:32:20.540Z,2.58
2023-03-04T11:34:53.053Z,2.95
2023-03-04T11:37:29.369Z,2.63
2023-03-04T11:40:12.428Z,2.50
2023-03-04T11:42:47.234Z,2.33
2023-03-04T11:45:29.143Z,2.47
2023-03-04T11:48:24.253Z,2.58
2023-03-04T11:51:19.133Z,2.15
2023-03-04T11:54:04.928Z,2.35
2023-03-04T11:56:45.678Z,2.85
2023-03-04T11:59:26.690Z,2.78
2023-03-04T12:02:10.368Z,2.45
2023-03-04T12:04:51.991Z,2.72
2023-03-04T12:07:46.733Z,2.90
2023-03-04T12:10:22.535Z,2.60
2023-03-04T12:16:10.760Z,2.77
2023-03-04T12:18:58.008Z,2.40
2023-03-04T12:21:43.189Z,2.53
2023-03-04T12:24:23.346Z,2.72
2023-03-04T12:26:58.857Z,2.80
2023-03-04T12:29:56.093Z,3.03
2023-03-04T12:32:44.209Z,2.60
2023-03-04T12:35:36.447Z,2.55
2023-03-04T12:38:12.840Z,2.33
2023-03-04T12:40:49.521Z,2.95
2023-03-04T12:43:33.378Z,2.38
2023-03-04T12:46:36.041Z,2.38
2023-03-04T12:49:26.360Z,1.98
2023-03-04T12:51:55.720Z,2.28
2023-03-04T12:54:36.662Z,2.47
2023-03-04T12:57:22.964Z,2.20
2023-03-04T13:02:36.328Z,2.10
2023-03-04T13:05:19.867Z,2.15
2023-03-04T13:08:23.082Z,2.00
2023-03-04T13:10:51.274Z,1.75
2023-03-04T13:13:37.060Z,1.60
2023-03-04T13:16:11.286Z,2.03
2023-03-04T13:18:41.182Z,1.95
2023-03-04T13:21:13.557Z,1.95
2023-03-04T13:23:40.762Z,1.92
2023-03-04T13:26:18.743Z,1.95
2023-03-04T13:28:45.526Z,2.15
2023-03-04T13:31:13.799Z,1.92
2023-03-04T13:33:47.854Z,2.55
2023-03-04T13:36:54.795Z,2.42
2023-03-04T13:39:27.615Z,2.42
2023-03-04T13:41:56.809Z,1.88
2023-03-04T13:44:36.134Z,1.90
2023-03-04T13:47:14.215Z,1.60
2023-03-04T13:49:40.790Z,1.67
2023-03-04T13:52:44.382Z,2.13
2023-03-04T13:55:34.557Z,2.67
2023-03-04T13:58:02.975Z,2.38
2023-03-04T14:00:29.754Z,2.90
2023-03-04T14:02:56.123Z,2.38
2023-03-04T14:05:22.546Z,2.90
2023-03-04T14:07:49.019Z,2.63
2023-03-04T14:10:25.025Z,2.88
2023-03-04T14:12:54.915Z,2.17
2023-03-04T14:15:24.271Z,2.70
2023-03-04T14:17:56.162Z,2.55
2023-03-04T14:20:30.012Z,2.38
2023-03-04T14:22:57.976Z,2.20
2023-03-04T14:25:28.322Z,2.47
2023-03-04T14:28:12.642Z,2.03
2023-03-04T14:30:43.772Z,2.67
2023-03-04T14:33:21.540Z,2.45
2023-03-04T14:35:51.131Z,2.20
2023-03-04T14:38:28.170Z,2.08
2023-03-04T14:41:05.441Z,2.03
2023-03-04T14:43:40.067Z,2.40
2023-03-04T14:46:11.391Z,2.30
2023-03-04T14:48:37.962Z,2.10
2023-03-04T14:51:04.530Z,2.50
2023-03-04T14:53:33.454Z,1.98
2023-03-04T14:56:05.027Z,2.20
2023-03-04T14:58:37.064Z,1.98
2023-03-04T15:01:13.282Z,2.20
2023-03-04T15:03:42.814Z,2.22
2023-03-04T15:06:18.782Z,2.05
2023-03-04T15:08:46.668Z,2.50
2023-03-04T15:11:26.137Z,2.13
2023-03-04T15:13:55.819Z,1.65
2023-03-04T15:16:25.625Z,2.40
2023-03-04T15:19:05.777Z,2.90
2023-03-04T15:21:40.716Z,3.20
2023-03-04T15:24:09.164Z,5.30
2023-03-04T15:26:40.434Z,2.33
2023-03-04T15:29:14.645Z,2.75
2023-03-04T15:31:41.142Z,2.83
2023-03-04T15:34:15.998Z,2.30
2023-03-04T15:36:46.581Z,3.20
2023-03-04T15:39:15.485Z,2.72
2023-03-04T15:41:42.040Z,2.65
2023-03-04T15:44:09.744Z,2.47
2023-03-04T15:46:36.374Z,2.15
2023-03-04T15:49:03.196Z,2.03
2023-03-04T15:51:29.950Z,2.42
2023-03-04T15:53:59.016Z,1.92
2023-03-04T15:56:28.380Z,3.17
2023-03-04T15:58:57.281Z,2.88
2023-03-04T16:01:24.362Z,2.42
2023-03-04T16:03:53.507Z,2.97
2023-03-04T16:06:24.125Z,2.60
2023-03-04T16:08:52.131Z,2.92
2023-03-04T16:11:25.030Z,2.28
2023-03-04T16:13:51.748Z,4.68
2023-03-04T16:16:18.798Z,4.53
2023-03-04T16:18:45.394Z,4.97
2023-03-04T16:21:14.808Z,4.35
2023-03-04T16:23:44.033Z,3.65
2023-03-04T16:26:13.897Z,3.30
2023-03-04T16:28:40.857Z,3.47
2023-03-04T16:31:07.808Z,3.40
2023-03-04T16:33:34.161Z,3.33
2023-03-04T16:36:00.768Z,2.75
2023-03-04T16:38:32.628Z,3.30
2023-03-04T16:41:02.020Z,2.80
2023-03-04T16:43:28.914Z,2.50
2023-03-04T16:45:55.624Z,2.55
2023-03-04T16:48:22.173Z,2.78
2023-03-04T16:50:48.584Z,2.60
2023-03-04T16:53:39.610Z,3.35
2023-03-04T16:56:11.876Z,3.30
2023-03-04T16:58:38.387Z,3.00
2023-03-04T17:01:04.923Z,2.40
2023-03-04T17:03:31.553Z,2.85
2023-03-04T17:05:58.521Z,2.45
2023-03-04T17:08:24.867Z,2.60
2023-03-04T17:10:52.404Z,2.33
2023-03-04T17:13:18.774Z,2.95
2023-03-04T17:15:46.820Z,3.40
2023-03-04T17:18:13.298Z,3.03
2023-03-04T17:20:40.397Z,2.40
2023-03-04T17:23:06.745Z,2.90
2023-03-04T17:25:33.292Z,2.83
2023-03-04T17:27:59.941Z,2.78
2023-03-04T17:30:26.509Z,2.90
2023-03-04T17:32:52.843Z,2.50
2023-03-04T17:35:19.466Z,2.95
2023-03-04T17:37:45.877Z,3.28
2023-03-04T17:40:15.417Z,3.05
2023-03-04T17:42:43.477Z,2.78
2023-03-04T17:45:11.108Z,2.85
2023-03-04T17:47:39.389Z,5.78
2023-03-04T17:50:07.535Z,9.73
2023-03-04T17:52:33.921Z,4.38
2023-03-04T17:55:00.335Z,3.50
2023-03-04T17:57:26.761Z,3.13
2023-03-04T17:59:53.106Z,2.58
2023-03-04T18:02:19.559Z,3.17
2023-03-04T18:04:48.234Z,2.80
2023-03-04T18:07:14.612Z,2.35
2023-03-04T18:09:40.983Z,2.72
2023-03-04T18:12:07.549Z,3.05
2023-03-04T18:14:33.922Z,2.55
2023-03-04T18:17:00.317Z,2.13
2023-03-04T18:19:26.662Z,3.08
2023-03-04T18:21:53.015Z,2.92
2023-03-04T18:24:19.340Z,3.13
2023-03-04T18:26:45.718Z,3.20
2023-03-04T18:29:12.234Z,2.70
2023-03-04T18:31:38.889Z,3.33
2023-03-04T18:34:05.761Z,3.20
2023-03-04T18:36:33.428Z,3.25
2023-03-04T18:39:00.123Z,6.55
2023-03-04T18:41:27.725Z,3.97
2023-03-04T18:43:54.605Z,2.80
2023-03-04T18:46:40.809Z,2.60
2023-03-04T18:51:35.328Z,2.47
2023-03-04T18:54:01.677Z,2.70
2023-03-04T18:56:37.613Z,2.60
2023-03-04T18:59:12.578Z,2.70
2023-03-04T19:01:39.256Z,2.35
2023-03-04T19:04:06.321Z,2.38
2023-03-04T19:06:33.808Z,4.97
2023-03-04T19:09:00.466Z,9.32
2023-03-04T19:11:27.178Z,3.97
2023-03-04T19:13:53.526Z,4.90
2023-03-04T19:16:20.086Z,4.22
2023-03-04T19:18:46.453Z,4.38
2023-03-04T19:21:12.794Z,5.40
2023-03-04T19:23:39.957Z,3.22
2023-03-04T19:26:07.998Z,3.30
2023-03-04T19:28:35.444Z,3.58
2023-03-04T19:31:07.007Z,3.88
2023-03-04T19:33:37.643Z,3.35
2023-03-04T19:36:05.959Z,3.38
2023-03-04T19:38:33.534Z,3.45
2023-03-04T19:41:07.127Z,3.63
2023-03-04T19:43:36.788Z,2.95
2023-03-04T19:46:03.189Z,2.85
2023-03-04T19:48:29.693Z,3.55
2023-03-04T19:50:56.020Z,2.92
2023-03-04T19:53:22.372Z,2.15
2023-03-04T19:55:49.348Z,3.13
2023-03-04T19:58:16.418Z,3.03
2023-03-04T20:00:42.874Z,3.25
2023-03-04T20:03:09.424Z,2.72
2023-03-04T20:05:36.550Z,3.63
2023-03-04T20:08:03.313Z,3.17
2023-03-04T20:10:36.994Z,2.85
2023-03-04T20:13:05.039Z,3.30
2023-03-04T20:15:31.408Z,3.42
2023-03-04T20:17:57.945Z,2.63
2023-03-04T20:20:28.536Z,3.90
2023-03-04T20:22:56.197Z,2.88
2023-03-04T20:25:24.822Z,3.20
2023-03-04T20:27:51.185Z,3.03
2023-03-04T20:30:17.932Z,2.92
2023-03-04T20:32:44.892Z,3.47
2023-03-04T20:35:14.956Z,3.13
2023-03-04T20:37:42.649Z,3.60
2023-03-04T20:40:11.172Z,4.15
2023-03-04T20:42:37.605Z,3.30
2023-03-04T20:45:05.005Z,3.10
2023-03-04T20:47:31.406Z,4.32
2023-03-04T20:49:57.789Z,3.72
2023-03-04T20:52:24.155Z,3.25
2023-03-04T20:54:50.611Z,3.33
2023-03-04T20:57:16.967Z,3.10
2023-03-04T20:59:43.603Z,3.47
2023-03-04T21:02:14.432Z,3.15
2023-03-04T21:04:40.799Z,3.50
2023-03-04T21:07:07.129Z,3.10
2023-03-04T21:09:33.438Z,3.15
2023-03-04T21:12:01.156Z,3.25
2023-03-04T21:14:30.056Z,3.35
2023-03-04T21:17:02.244Z,3.20
2023-03-04T21:19:31.251Z,3.55
2023-03-04T21:22:00.047Z,3.15
2023-03-04T21:24:29.077Z,3.05
2023-03-04T21:26:55.568Z,3.40
2023-03-04T21:29:24.223Z,3.28
2023-03-04T21:31:54.362Z,3.63
2023-03-04T21:34:39.819Z,3.17
2023-03-04T21:37:06.268Z,3.30
2023-03-04T21:39:32.971Z,2.85
2023-03-04T21:42:00.214Z,2.65
2023-03-04T21:44:45.228Z,2.90
2023-03-04T21:47:14.749Z,2.40
2023-03-04T21:49:41.224Z,2.78
2023-03-04T21:52:07.560Z,3.00
2023-03-04T21:54:34.002Z,3.13
2023-03-04T21:57:00.337Z,3.03
2023-03-04T21:59:26.708Z,3.08
2023-03-04T22:01:54.941Z,2.65
2023-03-04T22:04:21.304Z,2.63
2023-03-04T22:06:47.608Z,2.88
2023-03-04T22:09:14.494Z,2.97
2023-03-04T22:11:40.832Z,3.45
2023-03-04T22:14:07.316Z,3.15
2023-03-04T22:16:37.453Z,3.03
2023-03-04T22:19:06.268Z,2.22
2023-03-04T22:21:32.708Z,3.00
2023-03-04T22:23:59.448Z,3.42
2023-03-04T22:26:30.137Z,3.15
2023-03-04T22:28:56.821Z,2.65
2023-03-04T22:31:30.061Z,2.75
2023-03-04T22:34:00.083Z,3.38
2023-03-04T22:36:28.817Z,2.92
2023-03-04T22:38:55.666Z,2.83
2023-03-04T22:41:22.840Z,2.65
2023-03-04T22:43:50.180Z,2.40
2023-03-04T22:46:19.999Z,3.40
2023-03-04T22:48:47.334Z,3.85
2023-03-04T22:51:13.781Z,2.25
2023-03-04T22:53:40.312Z,2.70
2023-03-04T22:56:07.546Z,2.53
2023-03-04T22:58:34.217Z,2.85
2023-03-04T23:01:02.569Z,3.10
2023-03-04T23:03:30.947Z,2.60
2023-03-04T23:06:13.366Z,2.55
2023-03-04T23:08:41.222Z,2.65
2023-03-04T23:11:16.171Z,2.63
2023-03-04T23:13:43.009Z,2.90
2023-03-04T23:16:12.078Z,2.85
2023-03-04T23:18:39.983Z,2.83
2023-03-04T23:21:11.850Z,2.80
2023-03-04T23:23:38.874Z,3.20
2023-03-04T23:26:06.133Z,2.55
2023-03-04T23:28:32.521Z,2.78
2023-03-04T23:30:59.025Z,3.08
2023-03-04T23:33:25.545Z,2.10
2023-03-04T23:35:52.001Z,2.85
2023-03-04T23:38:18.406Z,2.33
2023-03-04T23:40:44.741Z,2.30
2023-03-04T23:43:11.089Z,3.03
2023-03-04T23:45:38.170Z,2.30
2023-03-04T23:48:04.780Z,3.22
2023-03-04T23:50:32.157Z,2.83
2023-03-04T23:52:58.555Z,2.80
2023-03-04T23:55:24.921Z,2.42
2023-03-04T23:57:51.334Z,2.55
